Time;durP1;ratioP1;P1;durP2;ratioP2;P2;SDS_P1;SDS_P2;PMS_P1;PMS_P2;Temp;Humidity;BMP_temperature;BMP_pressure;BME280_temperature;BME280_humidity;BME280_pressure;Samples;Min_cycle;Max_cycle;Signal;HPM_P1;HPM_P2
2022/08/21 00:01:39;;;;;;;5.57;3.28;;;;;;;19.58;59.43;100759.06;5048624;28;20024;-65
2022/08/21 00:04:07;;;;;;;6.07;3.05;;;;;;;19.20;59.70;100761.91;5051096;28;20467;-65
2022/08/21 00:06:34;;;;;;;7.55;3.30;;;;;;;19.23;60.76;100769.53;5042994;28;20025;-65
2022/08/21 00:09:01;;;;;;;5.35;2.90;;;;;;;19.24;60.15;100763.03;5050396;28;20029;-65
2022/08/21 00:11:27;;;;;;;6.47;3.35;;;;;;;19.18;60.46;100760.56;5034981;28;20037;-65
2022/08/21 00:13:54;;;;;;;6.13;3.03;;;;;;;19.43;59.84;100751.69;5052492;28;20100;-66
2022/08/21 00:16:21;;;;;;;6.13;3.08;;;;;;;19.31;60.20;100760.06;5054934;28;20489;-66
2022/08/21 00:18:47;;;;;;;6.13;2.88;;;;;;;18.76;61.28;100757.91;5051916;28;20033;-65
2022/08/21 00:21:14;;;;;;;6.65;3.30;;;;;;;18.81;60.99;100757.94;5052652;28;20413;-65
2022/08/21 00:23:41;;;;;;;5.35;3.00;;;;;;;18.61;62.79;100761.31;5014910;28;20029;-65
2022/08/21 00:26:08;;;;;;;4.65;3.05;;;;;;;18.48;62.56;100776.13;5014987;28;20030;-65
2022/08/21 00:28:34;;;;;;;30.77;4.68;;;;;;;18.53;62.51;100775.34;5034323;28;20029;-68
2022/08/21 00:31:03;;;;;;;31.98;4.85;;;;;;;18.44;63.31;100781.25;5034955;28;20025;-65
2022/08/21 00:33:30;;;;;;;6.72;3.40;;;;;;;18.39;63.11;100769.56;5035980;28;20036;-64
2022/08/21 00:35:57;;;;;;;6.32;3.03;;;;;;;18.20;63.31;100769.13;5034934;28;20026;-64
2022/08/21 00:38:23;;;;;;;7.78;3.75;;;;;;;18.41;63.34;100767.41;5033530;28;20032;-64
2022/08/21 00:41:09;;;;;;;7.15;3.55;;;;;;;18.42;63.74;100777.16;5022220;28;20396;-65
2022/08/21 00:43:37;;;;;;;8.40;4.10;;;;;;;18.42;63.86;100769.84;5032943;28;20030;-66
2022/08/21 00:46:05;;;;;;;6.65;3.72;;;;;;;18.26;64.25;100778.13;5034623;28;20147;-65
2022/08/21 00:48:32;;;;;;;9.38;3.72;;;;;;;18.12;64.35;100783.97;5037218;28;20061;-65
2022/08/21 00:51:01;;;;;;;8.52;4.10;;;;;;;18.27;64.42;100783.28;5034137;28;20103;-66
2022/08/21 00:53:30;;;;;;;5.85;3.63;;;;;;;17.72;65.75;100770.03;5031404;28;20064;-65
2022/08/21 00:55:58;;;;;;;7.03;3.60;;;;;;;17.36;66.49;100778.53;5034530;28;20403;-65
2022/08/21 00:58:27;;;;;;;7.90;3.72;;;;;;;17.29;68.46;100777.91;5031754;28;20104;-67
2022/08/21 01:00:54;;;;;;;7.43;3.78;;;;;;;17.29;67.67;100774.41;5037037;28;20032;-68
2022/08/21 01:03:24;;;;;;;5.93;3.63;;;;;;;17.09;68.58;100781.16;5033929;28;20044;-66
2022/08/21 01:05:51;;;;;;;6.70;3.22;;;;;;;17.17;68.42;100777.22;5041608;28;20029;-66
2022/08/21 01:08:19;;;;;;;7.45;3.83;;;;;;;16.98;69.12;100773.19;5033831;28;20040;-66
2022/08/21 01:10:46;;;;;;;4.82;3.13;;;;;;;16.42;70.54;100780.44;5033772;28;20029;-66
2022/08/21 01:13:16;;;;;;;7.68;3.40;;;;;;;16.49;70.86;100779.22;5034169;28;20033;-66
2022/08/21 01:15:46;;;;;;;4.68;3.50;;;;;;;16.55;70.82;100777.41;5027520;28;20366;-65
2022/08/21 01:18:14;;;;;;;5.28;3.13;;;;;;;16.53;71.03;100772.25;5033952;28;20116;-67
2022/08/21 01:20:45;;;;;;;7.07;3.60;;;;;;;16.48;71.50;100771.34;5034016;28;20080;-64
2022/08/21 01:23:12;;;;;;;6.63;3.15;;;;;;;16.39;71.42;100779.06;5033549;28;20022;-60
2022/08/21 01:25:38;;;;;;;7.47;2.95;;;;;;;16.41;71.29;100768.81;5032035;28;20029;-67
2022/08/21 01:28:13;;;;;;;5.97;3.17;;;;;;;16.37;71.65;100771.19;5033215;28;20029;-67
2022/08/21 01:30:42;;;;;;;11.68;3.75;;;;;;;16.33;72.43;100764.66;5033462;28;20030;-66
2022/08/21 01:33:08;;;;;;;4.32;3.10;;;;;;;16.46;71.58;100774.31;5030482;28;20060;-63
2022/08/21 01:35:34;;;;;;;18.02;3.90;;;;;;;16.25;72.11;100764.22;5036059;28;20111;-63
2022/08/21 01:38:01;;;;;;;5.50;3.30;;;;;;;16.17;72.27;100770.06;5036007;28;20051;-63
2022/08/21 01:40:27;;;;;;;5.88;3.33;;;;;;;16.04;73.16;100771.16;5033569;28;20509;-63
2022/08/21 01:42:53;;;;;;;7.35;3.53;;;;;;;16.03;73.42;100773.03;5032693;28;20059;-64
2022/08/21 01:45:20;;;;;;;5.22;3.78;;;;;;;15.83;74.74;100772.72;5053346;23;20123;-63
2022/08/21 01:47:46;;;;;;;6.63;3.92;;;;;;;15.81;74.81;100764.84;5048606;28;20030;-63
2022/08/21 01:50:18;;;;;;;6.32;4.10;;;;;;;15.93;74.28;100769.34;5033566;28;20487;-63
2022/08/21 01:52:44;;;;;;;7.55;3.78;;;;;;;15.97;74.33;100765.91;5034880;28;20033;-63
2022/08/21 01:55:13;;;;;;;5.00;3.50;;;;;;;15.95;74.12;100761.84;5053119;28;20017;-64
2022/08/21 01:57:39;;;;;;;8.02;3.65;;;;;;;15.71;75.23;100774.63;5052783;28;20029;-63
2022/08/21 02:00:10;;;;;;;6.80;3.85;;;;;;;15.72;75.34;100762.78;5052771;28;20582;-61
2022/08/21 02:02:36;;;;;;;7.00;3.83;;;;;;;15.92;74.64;100770.41;5050019;28;20028;-61
2022/08/21 02:05:04;;;;;;;5.80;3.75;;;;;;;15.97;73.84;100776.72;5046176;28;20037;-61
2022/08/21 02:07:43;;;;;;;5.50;3.63;;;;;;;15.77;74.73;100773.69;5053097;28;20020;-61
2022/08/21 02:10:12;;;;;;;5.53;3.80;;;;;;;15.61;75.19;100774.41;5033028;28;20108;-61
2022/08/21 02:12:38;;;;;;;8.88;3.33;;;;;;;15.51;75.47;100778.53;5033453;28;20025;-61
2022/08/21 02:15:07;;;;;;;5.97;3.20;;;;;;;15.35;75.97;100776.59;5052562;28;20113;-62
2022/08/21 02:17:45;;;;;;;5.50;3.65;;;;;;;15.29;76.05;100774.88;5052397;28;20160;-62
2022/08/21 02:20:29;;;;;;;5.25;3.05;;;;;;;15.17;76.28;100777.59;5052465;28;20017;-63
2022/08/21 02:22:55;;;;;;;6.85;3.47;;;;;;;15.14;76.33;100788.84;5043904;28;20180;-63
2022/08/21 02:25:24;;;;;;;8.95;3.95;;;;;;;15.08;76.87;100780.88;5032520;28;20028;-63
2022/08/21 02:27:50;;;;;;;9.48;4.50;;;;;;;14.90;77.30;100785.38;5032228;28;20034;-63
2022/08/21 02:30:21;;;;;;;9.38;4.68;;;;;;;14.82;77.60;100782.19;5030683;28;20075;-62
2022/08/21 02:32:48;;;;;;;7.82;4.63;;;;;;;14.84;77.68;100791.69;5022683;28;20483;-62
2022/08/21 02:35:14;;;;;;;12.80;5.43;;;;;;;14.78;77.57;100790.75;5034271;28;20103;-60
2022/08/21 02:37:51;;;;;;;11.88;5.30;;;;;;;14.71;78.42;100783.84;5019595;28;20037;-60
2022/08/21 02:40:20;;;;;;;11.50;5.63;;;;;;;14.79;78.25;100783.50;5023385;28;20483;-60
2022/08/21 02:42:47;;;;;;;11.90;6.65;;;;;;;14.86;78.19;100794.97;5032180;28;20175;-61
2022/08/21 02:45:14;;;;;;;12.38;5.20;;;;;;;14.85;77.85;100796.03;5032219;28;20045;-60
2022/08/21 02:47:48;;;;;;;15.82;5.63;;;;;;;14.91;77.57;100788.88;5032085;28;20475;-62
2022/08/21 02:50:19;;;;;;;20.02;6.57;;;;;;;14.95;77.70;100796.25;5015869;28;20034;-61
2022/08/21 02:52:45;;;;;;;20.33;6.57;;;;;;;14.71;78.99;100795.47;5020752;28;20029;-61
2022/08/21 02:55:11;;;;;;;14.40;6.35;;;;;;;14.83;78.53;100798.16;5029877;28;20025;-61
2022/08/21 02:57:37;;;;;;;25.58;7.20;;;;;;;14.78;78.86;100804.22;5014424;28;20049;-61
2022/08/21 03:00:07;;;;;;;20.15;6.85;;;;;;;14.86;79.09;100800.34;5012344;28;20048;-61
2022/08/21 03:02:34;;;;;;;18.67;6.82;;;;;;;14.73;80.28;100806.81;5029542;28;20048;-61
2022/08/21 03:05:00;;;;;;;24.05;6.80;;;;;;;14.68;80.60;100808.56;5031912;28;20026;-61
2022/08/21 03:07:27;;;;;;;16.63;6.80;;;;;;;14.83;80.30;100803.53;5031233;28;20042;-61
2022/08/21 03:09:53;;;;;;;22.27;8.23;;;;;;;14.82;80.51;100806.44;5031699;28;20361;-61
2022/08/21 03:12:19;;;;;;;27.98;7.72;;;;;;;14.63;81.56;100793.09;5031145;28;20025;-61
2022/08/21 03:14:45;;;;;;;29.23;6.93;;;;;;;14.70;81.06;100801.06;5030594;28;20384;-61
2022/08/21 03:17:12;;;;;;;25.60;7.72;;;;;;;14.79;80.26;100807.75;5031211;28;20049;-61
2022/08/21 03:19:39;;;;;;;22.10;6.63;;;;;;;14.68;80.86;100817.47;5031948;28;20041;-61
2022/08/21 03:22:05;;;;;;;23.88;7.07;;;;;;;14.73;80.45;100811.38;5031621;28;20029;-61
2022/08/21 03:24:31;;;;;;;20.27;6.93;;;;;;;14.73;80.31;100824.84;5031332;28;20479;-61
2022/08/21 03:26:57;;;;;;;25.48;6.43;;;;;;;14.74;79.91;100821.91;5020219;28;20165;-61
2022/08/21 03:29:23;;;;;;;23.05;6.85;;;;;;;14.76;79.60;100830.56;5030892;28;20060;-61
2022/08/21 03:31:49;;;;;;;18.83;6.03;;;;;;;14.73;79.94;100830.25;5026306;28;20037;-61
2022/08/21 03:34:16;;;;;;;19.33;5.63;;;;;;;14.67;79.73;100837.38;5031545;28;20475;-62
2022/08/21 03:36:43;;;;;;;19.83;6.47;;;;;;;14.62;79.92;100839.13;5031604;28;20387;-61
2022/08/21 03:39:09;;;;;;;18.10;5.68;;;;;;;14.79;78.76;100842.78;5019346;28;20060;-61
2022/08/21 03:41:35;;;;;;;23.58;6.15;;;;;;;14.71;79.35;100843.09;5011725;28;20036;-61
2022/08/21 03:44:02;;;;;;;16.50;5.93;;;;;;;14.75;79.13;100855.06;5026699;28;20054;-62
2022/08/21 03:46:28;;;;;;;13.52;5.97;;;;;;;14.82;78.92;100849.56;5029889;28;20061;-61
2022/08/21 03:48:55;;;;;;;18.83;5.85;;;;;;;14.67;79.51;100853.56;5031015;28;20033;-61
2022/08/21 03:51:22;;;;;;;16.42;6.03;;;;;;;14.77;79.23;100861.88;5035443;28;20033;-61
2022/08/21 03:53:48;;;;;;;24.60;7.20;;;;;;;14.74;79.27;100864.22;5035343;28;20457;-61
2022/08/21 03:56:16;;;;;;;18.23;5.78;;;;;;;14.82;79.02;100866.53;5035136;28;20029;-62
2022/08/21 03:58:42;;;;;;;19.98;6.40;;;;;;;14.78;78.94;100870.78;5035242;28;20033;-62
2022/08/21 04:01:10;;;;;;;21.45;5.50;;;;;;;14.80;79.59;100871.34;5035601;28;20104;-63
2022/08/21 04:03:37;;;;;;;35.20;7.05;;;;;;;14.72;80.03;100880.63;5032797;28;20077;-63
2022/08/21 04:06:05;;;;;;;23.85;6.85;;;;;;;14.68;80.40;100882.13;5032816;28;20021;-63
2022/08/21 04:08:31;;;;;;;17.58;5.95;;;;;;;14.57;80.04;100885.63;5034648;28;20123;-63
2022/08/21 04:10:58;;;;;;;18.98;6.57;;;;;;;14.63;79.79;100887.38;5034953;28;20017;-62
2022/08/21 04:13:28;;;;;;;21.77;6.18;;;;;;;14.55;80.09;100893.13;5035075;28;20147;-62
2022/08/21 04:15:55;;;;;;;19.05;6.20;;;;;;;14.60;79.74;100889.72;5035589;28;20034;-63
2022/08/21 04:18:21;;;;;;;21.58;5.82;;;;;;;14.52;79.95;100890.88;5034786;28;20025;-62
2022/08/21 04:20:51;;;;;;;18.65;6.22;;;;;;;14.49;80.21;100889.47;5029656;28;20026;-63
2022/08/21 04:23:21;;;;;;;19.08;5.63;;;;;;;14.49;80.34;100897.56;5033365;28;20029;-60
2022/08/21 04:25:48;;;;;;;23.05;5.75;;;;;;;14.48;80.31;100887.00;5034822;28;20018;-61
2022/08/21 04:28:14;;;;;;;19.25;6.18;;;;;;;14.49;80.76;100889.47;5034454;28;20068;-61
2022/08/21 04:30:40;;;;;;;21.90;7.05;;;;;;;14.60;80.34;100895.91;5035066;28;20079;-61
2022/08/21 04:33:07;;;;;;;26.15;7.40;;;;;;;14.55;80.96;100887.72;5034731;28;20025;-61
2022/08/21 04:35:33;;;;;;;19.33;6.38;;;;;;;14.54;81.46;100886.06;5034585;28;20427;-61
2022/08/21 04:37:59;;;;;;;21.95;7.32;;;;;;;14.62;80.91;100896.53;5031043;28;20053;-61
2022/08/21 04:40:29;;;;;;;16.77;6.50;;;;;;;14.69;80.82;100899.91;5035097;28;20026;-61
2022/08/21 04:43:02;;;;;;;25.70;7.38;;;;;;;14.55;81.29;100897.66;5034615;28;20087;-63
2022/08/21 04:45:32;;;;;;;19.10;6.45;;;;;;;14.53;81.44;100914.06;5034517;28;20049;-62
2022/08/21 04:48:00;;;;;;;25.15;6.75;;;;;;;14.57;81.00;100911.72;5034136;28;20067;-63
2022/08/21 04:50:57;;;;;;;29.55;7.32;;;;;;;14.64;80.95;100917.84;5034554;28;20029;-63
2022/08/21 04:53:50;;;;;;;28.98;7.70;;;;;;;14.50;81.58;100914.53;5034369;28;20386;-62
2022/08/21 04:56:28;;;;;;;23.65;7.05;;;;;;;14.47;81.56;100918.50;5028246;28;20030;-62
2022/08/21 04:58:58;;;;;;;26.02;6.53;;;;;;;14.57;81.11;100927.91;5034030;28;20029;-62
2022/08/21 05:01:27;;;;;;;21.02;7.80;;;;;;;14.45;81.81;100917.88;5034508;28;20544;-62
2022/08/21 05:03:58;;;;;;;23.58;7.60;;;;;;;14.50;81.66;100919.91;5034172;28;20034;-62
2022/08/21 05:06:26;;;;;;;26.17;7.72;;;;;;;14.31;82.66;100919.09;5034018;28;20017;-63
2022/08/21 05:08:55;;;;;;;23.95;7.25;;;;;;;14.33;82.64;100918.91;5033411;28;20110;-62
2022/08/21 05:11:22;;;;;;;28.80;7.03;;;;;;;14.45;82.17;100920.56;5033823;28;20044;-63
2022/08/21 05:13:49;;;;;;;21.92;8.40;;;;;;;14.35;82.59;100923.00;5028708;28;20054;-62
2022/08/21 05:16:16;;;;;;;21.80;7.25;;;;;;;14.27;82.71;100926.03;5033816;28;20030;-62
2022/08/21 05:18:43;;;;;;;21.63;7.40;;;;;;;14.33;82.56;100927.78;5033649;28;20041;-63
2022/08/21 05:21:09;;;;;;;25.60;7.18;;;;;;;14.33;82.18;100927.78;5036808;28;20029;-62
2022/08/21 05:23:36;;;;;;;22.35;8.05;;;;;;;14.41;81.97;100934.72;5040265;28;20026;-63
2022/08/21 05:26:04;;;;;;;16.17;6.60;;;;;;;14.36;82.29;100935.41;5038229;28;20152;-62
2022/08/21 05:28:31;;;;;;;26.65;7.53;;;;;;;14.47;81.67;100940.03;5047489;28;20076;-62
2022/08/21 05:30:57;;;;;;;28.63;7.63;;;;;;;14.33;82.16;100941.25;5035035;28;20116;-63
2022/08/21 05:33:24;;;;;;;28.73;7.30;;;;;;;14.23;82.44;100943.66;5049779;28;20024;-62
2022/08/21 05:35:52;;;;;;;20.40;6.53;;;;;;;14.22;82.89;100960.88;5053443;28;20463;-62
2022/08/21 05:38:19;;;;;;;29.35;7.55;;;;;;;14.36;82.16;100950.75;5038719;28;20029;-62
2022/08/21 05:40:46;;;;;;;19.73;6.35;;;;;;;14.37;81.93;100955.88;5053384;28;20021;-63
2022/08/21 05:43:12;;;;;;;23.40;7.43;;;;;;;14.33;82.11;100956.59;5048992;28;20036;-62
2022/08/21 05:45:38;;;;;;;20.75;7.53;;;;;;;14.42;81.91;100957.91;5047587;28;20045;-63
2022/08/21 05:48:17;;;;;;;17.55;7.80;;;;;;;14.23;82.71;100965.22;5044769;28;20041;-63
2022/08/21 05:50:47;;;;;;;24.00;7.53;;;;;;;14.19;83.19;100970.22;5053516;28;20033;-62
2022/08/21 05:53:14;;;;;;;22.90;7.38;;;;;;;14.29;82.58;100971.56;5049238;28;20021;-62
2022/08/21 05:55:41;;;;;;;21.50;7.38;;;;;;;14.26;82.67;100965.56;5053166;28;20078;-62
2022/08/21 05:58:08;;;;;;;22.75;7.55;;;;;;;14.26;82.75;100967.44;5042791;28;20033;-62
2022/08/21 06:00:34;;;;;;;26.73;7.70;;;;;;;14.34;82.44;100963.63;5050934;28;20359;-62
2022/08/21 06:03:00;;;;;;;17.33;6.60;;;;;;;14.21;82.93;100961.91;5044132;28;20413;-63
2022/08/21 06:05:26;;;;;;;26.10;6.93;;;;;;;14.24;82.72;100964.16;5050832;28;20614;-63
2022/08/21 06:07:53;;;;;;;21.83;7.35;;;;;;;14.16;83.21;100968.00;5052822;28;20025;-63
2022/08/21 06:10:19;;;;;;;24.33;7.43;;;;;;;14.17;83.33;100968.81;5049913;28;20052;-63
2022/08/21 06:12:46;;;;;;;20.05;6.10;;;;;;;14.18;83.22;100973.13;5045563;28;20087;-63
2022/08/21 06:15:12;;;;;;;18.83;7.03;;;;;;;14.13;83.62;100970.31;5050941;28;20533;-63
2022/08/21 06:17:38;;;;;;;20.90;6.25;;;;;;;14.06;83.93;100977.66;5052537;28;20082;-62
2022/08/21 06:20:05;;;;;;;31.52;7.68;;;;;;;14.12;84.02;100976.75;5035443;28;20128;-63
2022/08/21 06:22:31;;;;;;;19.92;6.65;;;;;;;14.13;83.85;100978.38;5013253;28;20030;-62
2022/08/21 06:24:57;;;;;;;20.45;6.35;;;;;;;14.13;84.14;100971.13;5035326;28;20025;-62
2022/08/21 06:27:23;;;;;;;16.60;6.00;;;;;;;14.19;83.76;100972.91;5052256;28;20029;-62
2022/08/21 06:29:49;;;;;;;19.50;6.57;;;;;;;14.14;84.26;100980.00;5050658;28;20055;-62
2022/08/21 06:32:16;;;;;;;24.20;6.72;;;;;;;14.12;84.43;100985.63;5052432;28;20029;-62
2022/08/21 06:34:42;;;;;;;18.65;6.05;;;;;;;14.20;84.35;100981.81;5048804;28;20526;-62
2022/08/21 06:37:09;;;;;;;24.75;6.47;;;;;;;14.28;84.04;100989.59;5040300;28;20033;-63
2022/08/21 06:39:35;;;;;;;19.10;6.70;;;;;;;14.20;84.46;100992.56;5038906;28;20032;-63
2022/08/21 06:42:02;;;;;;;22.45;6.75;;;;;;;14.28;84.23;100994.97;5053049;28;20029;-62
2022/08/21 06:44:29;;;;;;;22.80;6.95;;;;;;;14.25;84.43;100995.41;5049057;28;20402;-63
2022/08/21 06:46:55;;;;;;;15.48;6.45;;;;;;;14.18;84.74;101000.88;5052255;28;20430;-63
2022/08/21 06:49:21;;;;;;;21.25;7.15;;;;;;;14.40;84.01;101014.69;5047058;28;20067;-62
2022/08/21 06:51:47;;;;;;;21.08;6.75;;;;;;;14.31;84.45;101004.44;5050822;28;20368;-63
2022/08/21 06:54:14;;;;;;;24.70;5.55;;;;;;;14.38;83.69;101007.88;5034763;28;20124;-63
2022/08/21 06:56:40;;;;;;;24.35;6.50;;;;;;;14.37;83.90;101009.75;5041728;28;20078;-63
2022/08/21 06:59:06;;;;;;;22.35;6.07;;;;;;;14.30;84.46;101006.31;5048113;28;20025;-62
2022/08/21 07:01:33;;;;;;;24.55;7.18;;;;;;;14.40;84.37;101008.47;5050863;28;20144;-63
2022/08/21 07:03:59;;;;;;;19.52;5.90;;;;;;;14.42;84.16;101014.47;5050016;28;20029;-63
2022/08/21 07:06:25;;;;;;;23.23;6.15;;;;;;;14.46;84.23;101018.34;5050359;28;20032;-62
2022/08/21 07:08:51;;;;;;;13.50;5.38;;;;;;;14.43;84.40;101024.16;5050025;28;20036;-63
2022/08/21 07:11:20;;;;;;;20.88;6.78;;;;;;;14.36;84.59;101024.25;5035266;28;20080;-63
2022/08/21 07:13:47;;;;;;;22.65;6.10;;;;;;;14.41;84.40;101023.59;5015924;28;20557;-63
2022/08/21 07:16:13;;;;;;;25.10;6.10;;;;;;;14.40;84.51;101027.34;5049874;28;20051;-63
2022/08/21 07:18:39;;;;;;;21.52;6.22;;;;;;;14.44;84.74;101025.84;5048402;28;20017;-63
2022/08/21 07:21:07;;;;;;;18.92;5.45;;;;;;;14.49;84.65;101026.84;5048027;28;20049;-63
2022/08/21 07:23:38;;;;;;;17.25;6.28;;;;;;;14.39;84.62;101014.94;5051482;28;20056;-62
2022/08/21 07:26:04;;;;;;;23.52;6.93;;;;;;;14.39;85.14;101025.69;5046219;28;20102;-63
2022/08/21 07:28:31;;;;;;;21.50;6.32;;;;;;;14.36;85.60;101024.25;5031013;28;20901;-63
2022/08/21 07:31:00;;;;;;;16.30;5.75;;;;;;;14.31;85.53;101026.81;5018559;28;20468;-62
2022/08/21 07:33:29;;;;;;;18.92;6.10;;;;;;;14.37;85.62;101025.91;5051629;28;20083;-62
2022/08/21 07:35:55;;;;;;;26.77;7.20;;;;;;;14.38;85.51;101027.56;5049512;28;20086;-62
2022/08/21 07:38:22;;;;;;;18.75;6.63;;;;;;;14.42;85.49;101026.03;5034023;28;20395;-63
2022/08/21 07:40:50;;;;;;;14.20;5.68;;;;;;;14.42;85.75;101038.69;5029057;28;20032;-63
2022/08/21 07:43:17;;;;;;;18.65;5.97;;;;;;;14.44;85.99;101034.75;5044321;28;20060;-63
2022/08/21 07:45:45;;;;;;;23.02;6.53;;;;;;;14.43;85.66;101030.38;5029431;28;20046;-63
2022/08/21 07:48:11;;;;;;;13.68;5.32;;;;;;;14.40;86.11;101036.22;5050949;28;20070;-63
2022/08/21 07:50:39;;;;;;;15.50;6.38;;;;;;;14.31;86.49;101034.06;5049766;28;20383;-63
2022/08/21 07:53:07;;;;;;;16.20;5.80;;;;;;;14.40;86.11;101038.09;5011789;28;20472;-62
2022/08/21 07:55:34;;;;;;;13.52;5.38;;;;;;;14.45;86.10;101040.94;5011669;28;20029;-63
2022/08/21 07:58:00;;;;;;;26.52;6.28;;;;;;;14.48;86.14;101035.94;5048784;28;20021;-63
2022/08/21 08:00:28;;;;;;;15.38;5.88;;;;;;;14.52;85.85;101044.41;5051344;28;20494;-63
2022/08/21 08:02:55;;;;;;;19.85;4.72;;;;;;;14.42;86.11;101061.06;5018267;28;20022;-62
2022/08/21 08:05:26;;;;;;;21.40;5.40;;;;;;;14.46;86.01;101053.34;5011534;28;20029;-62
2022/08/21 08:07:53;;;;;;;30.25;6.07;;;;;;;14.60;85.71;101056.72;5043761;28;20024;-62
2022/08/21 08:10:19;;;;;;;14.13;5.38;;;;;;;14.58;85.56;101058.84;5051257;28;20129;-62
2022/08/21 08:12:46;;;;;;;21.83;5.75;;;;;;;14.64;85.44;101063.31;5049447;28;20104;-63
2022/08/21 08:15:16;;;;;;;19.70;4.93;;;;;;;14.60;85.67;101056.72;5043370;28;20029;-63
2022/08/21 08:17:42;;;;;;;13.98;5.30;;;;;;;14.61;85.58;101053.00;5048785;28;20025;-63
2022/08/21 08:20:10;;;;;;;17.02;5.55;;;;;;;14.47;86.21;101053.16;5019637;28;20053;-63
2022/08/21 08:22:39;;;;;;;17.00;5.28;;;;;;;14.51;86.19;101053.53;5033328;28;20487;-63
2022/08/21 08:25:08;;;;;;;11.65;4.82;;;;;;;14.52;85.90;101056.00;5051313;28;20040;-63
2022/08/21 08:27:34;;;;;;;10.95;4.43;;;;;;;14.61;85.63;101053.00;5025746;28;20036;-63
2022/08/21 08:30:01;;;;;;;16.70;5.07;;;;;;;14.60;85.47;101052.16;5031164;28;20034;-62
2022/08/21 08:32:27;;;;;;;20.33;5.70;;;;;;;14.63;85.75;101053.59;5047586;28;20017;-62
2022/08/21 08:34:53;;;;;;;16.35;5.03;;;;;;;14.44;86.31;101053.59;5055259;28;20033;-62
2022/08/21 08:37:20;;;;;;;16.30;5.47;;;;;;;14.57;86.04;101044.53;5034939;28;20029;-62
2022/08/21 08:39:47;;;;;;;13.93;4.90;;;;;;;14.47;86.35;101042.38;5015227;28;20096;-62
2022/08/21 08:42:20;;;;;;;15.38;4.90;;;;;;;14.52;86.26;101047.09;5034757;28;20021;-62
2022/08/21 08:44:47;;;;;;;18.35;5.20;;;;;;;14.59;85.86;101041.63;5054510;28;20099;-62
2022/08/21 08:47:17;;;;;;;16.05;5.25;;;;;;;14.61;85.49;101039.53;5051482;28;20108;-62
2022/08/21 08:50:05;;;;;;;12.95;4.85;;;;;;;14.63;85.32;101040.94;5052675;28;20021;-62
2022/08/21 08:52:35;;;;;;;15.50;5.72;;;;;;;14.55;85.83;101037.72;5050522;28;20017;-63
2022/08/21 08:55:09;;;;;;;13.35;5.47;;;;;;;14.56;85.62;101045.59;5021286;28;20358;-63
2022/08/21 08:57:37;;;;;;;16.70;5.68;;;;;;;14.53;86.25;101043.34;5014546;28;20369;-62
2022/08/21 09:00:10;;;;;;;17.98;5.57;;;;;;;14.56;86.01;101045.59;5031299;28;20025;-62
2022/08/21 09:02:39;;;;;;;16.13;4.90;;;;;;;14.61;85.54;101053.00;5054593;28;20024;-63
2022/08/21 09:05:07;;;;;;;16.63;5.10;;;;;;;14.56;85.68;101052.84;5050643;28;20108;-62
2022/08/21 09:08:06;;;;;;;10.68;5.13;;;;;;;14.62;85.52;101051.94;5052416;28;20049;-63
2022/08/21 09:10:35;;;;;;;11.93;4.85;;;;;;;14.53;85.57;101046.84;5031309;28;20369;-63
2022/08/21 09:13:39;;;;;;;13.10;5.00;;;;;;;14.59;85.49;101052.38;5030036;28;20039;-62
2022/08/21 09:16:14;;;;;;;14.13;4.80;;;;;;;14.69;85.06;101064.28;5044004;28;20040;-62
2022/08/21 09:19:18;;;;;;;16.15;4.05;;;;;;;14.70;85.11;101068.59;5054432;28;20112;-62
2022/08/21 09:22:09;;;;;;;11.27;4.22;;;;;;;14.73;84.89;101067.34;5052993;28;20037;-63
2022/08/21 09:24:47;;;;;;;13.20;4.38;;;;;;;14.67;84.70;101065.56;5054478;28;20032;-62
2022/08/21 09:27:16;;;;;;;12.18;4.68;;;;;;;14.80;84.59;101062.69;5036173;28;20034;-63
2022/08/21 09:29:50;;;;;;;13.25;4.90;;;;;;;14.86;84.13;101061.75;5014052;28;20041;-62
2022/08/21 09:32:19;;;;;;;13.57;4.35;;;;;;;14.86;84.02;101072.53;5039411;28;20067;-62
2022/08/21 09:35:01;;;;;;;12.18;4.22;;;;;;;14.90;83.63;101068.34;5053759;28;20048;-62
2022/08/21 09:37:30;;;;;;;21.88;5.25;;;;;;;14.86;84.12;101069.03;5031206;28;20030;-62
2022/08/21 09:39:58;;;;;;;16.23;4.85;;;;;;;14.83;84.39;101069.50;5013907;28;20506;-62
2022/08/21 09:42:34;;;;;;;10.07;4.40;;;;;;;15.00;83.58;101074.00;5039501;28;20029;-62
2022/08/21 09:45:09;;;;;;;11.88;4.68;;;;;;;14.93;83.83;101075.13;5023896;28;20068;-62
2022/08/21 09:47:36;;;;;;;12.80;4.55;;;;;;;14.85;83.76;101073.59;5048804;28;20140;-62
2022/08/21 09:50:18;;;;;;;11.07;4.68;;;;;;;14.98;83.69;101073.41;5050786;28;20044;-63
2022/08/21 09:52:56;;;;;;;9.18;4.32;;;;;;;14.93;83.31;101078.66;5053416;28;20044;-62
2022/08/21 09:58:50;;;;;;;9.57;4.32;;;;;;;14.83;83.28;101075.72;4981770;28;20036;-63
2022/08/21 10:01:21;;;;;;;9.35;3.67;;;;;;;14.75;83.92;101073.31;5023250;28;20036;-63
2022/08/21 10:03:48;;;;;;;12.23;4.10;;;;;;;14.82;83.72;101076.72;5012650;28;20033;-62
2022/08/21 10:06:27;;;;;;;12.30;4.43;;;;;;;14.89;83.84;101082.88;5030924;28;20024;-62
2022/08/21 10:09:12;;;;;;;9.93;3.80;;;;;;;14.82;84.02;101095.59;5048670;28;20029;-62
2022/08/21 10:11:42;;;;;;;10.50;3.85;;;;;;;14.84;83.95;101088.13;5049558;28;20499;-62
2022/08/21 10:14:13;;;;;;;11.25;4.32;;;;;;;14.94;83.40;101091.09;5047177;28;20411;-63
2022/08/21 10:16:42;;;;;;;11.07;3.95;;;;;;;14.86;83.76;101082.50;5050904;28;20033;-63
2022/08/21 10:19:27;;;;;;;9.52;3.72;;;;;;;14.98;83.57;101099.53;5020541;28;20103;-62
2022/08/21 10:22:02;;;;;;;16.85;4.20;;;;;;;14.93;83.50;101091.31;5030215;28;20032;-63
2022/08/21 10:24:43;;;;;;;5.85;3.10;;;;;;;14.98;83.29;101086.88;5013192;28;20392;-62
2022/08/21 10:27:27;;;;;;;13.02;4.00;;;;;;;15.03;82.92;101087.00;5029544;28;20513;-63
2022/08/21 10:30:18;;;;;;;10.20;3.50;;;;;;;15.02;83.09;101093.47;5032804;28;20033;-62
2022/08/21 10:33:07;;;;;;;11.48;4.15;;;;;;;15.10;82.69;101104.97;5032579;28;20112;-63
2022/08/21 10:35:44;;;;;;;10.20;3.78;;;;;;;15.04;81.97;101112.09;5025969;28;20405;-63
2022/08/21 10:38:10;;;;;;;9.02;3.15;;;;;;;15.00;82.34;101106.34;5032238;28;20125;-63
2022/08/21 10:40:45;;;;;;;8.05;2.78;;;;;;;15.10;81.95;101102.25;5025679;23;20050;-62
2022/08/21 10:43:13;;;;;;;7.45;3.03;;;;;;;15.01;81.65;101112.56;4991649;28;20109;-62
2022/08/21 10:46:01;;;;;;;7.97;3.83;;;;;;;14.89;82.70;101106.31;4992967;28;20042;-63
2022/08/21 10:48:53;;;;;;;6.07;3.50;;;;;;;14.94;82.22;101101.88;4992650;28;20110;-63
2022/08/21 10:51:29;;;;;;;9.77;3.13;;;;;;;15.11;81.48;101110.16;4990799;28;20074;-63
2022/08/21 10:54:05;;;;;;;8.45;3.53;;;;;;;15.02;81.82;101120.41;4988731;28;20030;-62
2022/08/21 10:56:38;;;;;;;7.22;3.47;;;;;;;14.98;81.60;101113.84;4992500;28;20030;-62
2022/08/21 10:59:38;;;;;;;8.63;3.28;;;;;;;14.87;81.89;101119.16;4993629;28;20121;-62
2022/08/21 11:02:17;;;;;;;6.80;3.40;;;;;;;14.68;nan;101126.47;5012490;28;20025;-62
2022/08/21 11:04:58;;;;;;;7.03;3.75;;;;;;;14.84;82.43;101128.56;5006524;28;20037;-62
2022/08/21 11:07:53;;;;;;;8.00;3.35;;;;;;;14.94;81.99;101120.75;4973614;28;20046;-62
2022/08/21 11:10:41;;;;;;;6.85;3.47;;;;;;;14.94;81.45;101122.63;4986935;28;20030;-62
2022/08/21 11:13:24;;;;;;;6.85;3.33;;;;;;;14.76;82.22;101128.84;4973315;28;20027;-62
2022/08/21 11:16:13;;;;;;;8.05;3.30;;;;;;;14.83;82.41;101128.78;4978545;28;20135;-62
2022/08/21 11:19:18;;;;;;;10.18;3.83;;;;;;;14.82;82.41;101136.03;5000694;28;20484;-62
2022/08/21 11:21:52;;;;;;;11.20;4.68;;;;;;;14.82;82.35;101136.03;4990579;28;20463;-63
2022/08/21 11:24:33;;;;;;;11.57;4.77;;;;;;;14.86;82.22;101137.22;4992304;28;20042;-62
2022/08/21 11:27:18;;;;;;;9.07;4.28;;;;;;;14.68;82.88;101139.94;4977658;28;20147;-62
2022/08/21 11:29:50;;;;;;;9.20;4.07;;;;;;;14.60;83.04;101141.06;4974858;28;20101;-62
2022/08/21 11:32:40;;;;;;;10.18;3.75;;;;;;;14.73;82.57;101142.78;4974383;28;20039;-62
2022/08/21 11:35:27;;;;;;;9.35;4.07;;;;;;;14.76;82.56;101140.44;4981938;28;20161;-62
2022/08/21 11:38:12;;;;;;;13.52;4.22;;;;;;;14.82;82.42;101141.41;4991979;28;20034;-63